sensor_id;sensor_type;location;lat;lon;timestamp;P1;durP1;ratioP1;P2;durP2;ratioP2
31424;SDS011;18054;51.572;7.372;2024-03-08T00:02:26;41.45;;;22.35;;
31424;SDS011;18054;51.572;7.372;2024-03-08T00:04:55;36.95;;;21.60;;
31424;SDS011;18054;51.572;7.372;2024-03-08T00:07:23;36.05;;;22.48;;
31424;SDS011;18054;51.572;7.372;2024-03-08T00:09:50;41.38;;;22.70;;
31424;SDS011;18054;51.572;7.372;2024-03-08T00:12:18;39.22;;;21.90;;
31424;SDS011;18054;51.572;7.372;2024-03-08T00:14:46;38.45;;;23.00;;
31424;SDS011;18054;51.572;7.372;2024-03-08T00:17:14;40.88;;;22.02;;
31424;SDS011;18054;51.572;7.372;2024-03-08T00:19:43;42.92;;;25.13;;
31424;SDS011;18054;51.572;7.372;2024-03-08T00:22:10;39.92;;;23.08;;
31424;SDS011;18054;51.572;7.372;2024-03-08T00:24:38;39.33;;;23.05;;
31424;SDS011;18054;51.572;7.372;2024-03-08T00:27:06;46.20;;;23.70;;
31424;SDS011;18054;51.572;7.372;2024-03-08T00:29:35;39.38;;;23.27;;
31424;SDS011;18054;51.572;7.372;2024-03-08T00:32:04;44.88;;;25.10;;
31424;SDS011;18054;51.572;7.372;2024-03-08T00:34:34;43.90;;;23.48;;
31424;SDS011;18054;51.572;7.372;2024-03-08T00:37:04;38.65;;;23.50;;
31424;SDS011;18054;51.572;7.372;2024-03-08T00:39:31;37.90;;;22.45;;
31424;SDS011;18054;51.572;7.372;2024-03-08T00:41:59;50.47;;;24.13;;
31424;SDS011;18054;51.572;7.372;2024-03-08T00:44:26;40.13;;;24.00;;
31424;SDS011;18054;51.572;7.372;2024-03-08T00:46:54;42.42;;;24.50;;
31424;SDS011;18054;51.572;7.372;2024-03-08T00:49:22;43.90;;;23.60;;
31424;SDS011;18054;51.572;7.372;2024-03-08T00:51:50;49.45;;;24.30;;
31424;SDS011;18054;51.572;7.372;2024-03-08T00:54:18;40.13;;;23.90;;
31424;SDS011;18054;51.572;7.372;2024-03-08T00:56:46;41.15;;;23.75;;
31424;SDS011;18054;51.572;7.372;2024-03-08T00:59:13;50.00;;;25.00;;
31424;SDS011;18054;51.572;7.372;2024-03-08T01:02:34;44.45;;;24.15;;
31424;SDS011;18054;51.572;7.372;2024-03-08T01:05:02;42.50;;;24.50;;
31424;SDS011;18054;51.572;7.372;2024-03-08T01:07:32;45.03;;;25.00;;
31424;SDS011;18054;51.572;7.372;2024-03-08T01:09:59;47.03;;;24.00;;
31424;SDS011;18054;51.572;7.372;2024-03-08T01:12:28;50.60;;;26.33;;
31424;SDS011;18054;51.572;7.372;2024-03-08T01:14:55;45.20;;;24.65;;
31424;SDS011;18054;51.572;7.372;2024-03-08T01:17:24;40.47;;;24.27;;
31424;SDS011;18054;51.572;7.372;2024-03-08T01:19:54;44.45;;;25.02;;
31424;SDS011;18054;51.572;7.372;2024-03-08T01:22:21;40.88;;;24.17;;
31424;SDS011;18054;51.572;7.372;2024-03-08T01:27:17;43.33;;;23.40;;
31424;SDS011;18054;51.572;7.372;2024-03-08T01:29:44;49.40;;;24.42;;
31424;SDS011;18054;51.572;7.372;2024-03-08T01:32:12;49.58;;;26.98;;
31424;SDS011;18054;51.572;7.372;2024-03-08T01:34:39;47.92;;;26.08;;
31424;SDS011;18054;51.572;7.372;2024-03-08T01:37:08;43.35;;;24.42;;
31424;SDS011;18054;51.572;7.372;2024-03-08T01:39:35;46.95;;;25.95;;
31424;SDS011;18054;51.572;7.372;2024-03-08T01:42:04;44.30;;;23.42;;
31424;SDS011;18054;51.572;7.372;2024-03-08T01:44:31;44.03;;;24.20;;
31424;SDS011;18054;51.572;7.372;2024-03-08T01:49:27;42.83;;;24.50;;
31424;SDS011;18054;51.572;7.372;2024-03-08T01:51:55;47.45;;;24.80;;
31424;SDS011;18054;51.572;7.372;2024-03-08T01:54:25;44.75;;;25.55;;
31424;SDS011;18054;51.572;7.372;2024-03-08T01:56:53;42.35;;;23.60;;
31424;SDS011;18054;51.572;7.372;2024-03-08T01:59:21;49.85;;;25.90;;
31424;SDS011;18054;51.572;7.372;2024-03-08T02:01:49;48.47;;;24.90;;
31424;SDS011;18054;51.572;7.372;2024-03-08T02:04:17;47.15;;;25.88;;
31424;SDS011;18054;51.572;7.372;2024-03-08T02:06:45;44.13;;;24.50;;
31424;SDS011;18054;51.572;7.372;2024-03-08T02:09:12;48.80;;;26.70;;
31424;SDS011;18054;51.572;7.372;2024-03-08T02:11:41;52.83;;;26.67;;
31424;SDS011;18054;51.572;7.372;2024-03-08T02:14:09;46.60;;;26.40;;
31424;SDS011;18054;51.572;7.372;2024-03-08T02:16:37;46.20;;;24.77;;
31424;SDS011;18054;51.572;7.372;2024-03-08T02:19:05;46.10;;;25.15;;
31424;SDS011;18054;51.572;7.372;2024-03-08T02:21:39;42.58;;;23.65;;
31424;SDS011;18054;51.572;7.372;2024-03-08T02:24:07;45.20;;;25.67;;
31424;SDS011;18054;51.572;7.372;2024-03-08T02:26:34;44.17;;;25.45;;
31424;SDS011;18054;51.572;7.372;2024-03-08T02:29:02;45.88;;;26.00;;
31424;SDS011;18054;51.572;7.372;2024-03-08T02:31:30;55.95;;;26.05;;
31424;SDS011;18054;51.572;7.372;2024-03-08T02:33:59;52.58;;;26.17;;
31424;SDS011;18054;51.572;7.372;2024-03-08T02:36:26;46.83;;;25.52;;
31424;SDS011;18054;51.572;7.372;2024-03-08T02:38:55;43.08;;;24.92;;
31424;SDS011;18054;51.572;7.372;2024-03-08T02:41:23;47.00;;;24.83;;
31424;SDS011;18054;51.572;7.372;2024-03-08T02:43:50;43.88;;;25.58;;
31424;SDS011;18054;51.572;7.372;2024-03-08T02:46:17;44.67;;;24.70;;
31424;SDS011;18054;51.572;7.372;2024-03-08T02:48:45;56.92;;;27.00;;
31424;SDS011;18054;51.572;7.372;2024-03-08T02:51:13;44.33;;;25.33;;
31424;SDS011;18054;51.572;7.372;2024-03-08T02:53:42;48.88;;;26.98;;
31424;SDS011;18054;51.572;7.372;2024-03-08T02:58:40;48.40;;;23.90;;
31424;SDS011;18054;51.572;7.372;2024-03-08T03:01:09;50.70;;;25.60;;
31424;SDS011;18054;51.572;7.372;2024-03-08T03:03:36;49.40;;;25.15;;
31424;SDS011;18054;51.572;7.372;2024-03-08T03:06:04;52.10;;;26.50;;
31424;SDS011;18054;51.572;7.372;2024-03-08T03:08:33;50.33;;;26.25;;
31424;SDS011;18054;51.572;7.372;2024-03-08T03:11:01;50.67;;;26.35;;
31424;SDS011;18054;51.572;7.372;2024-03-08T03:13:28;53.88;;;27.05;;
31424;SDS011;18054;51.572;7.372;2024-03-08T03:15:57;52.20;;;27.48;;
31424;SDS011;18054;51.572;7.372;2024-03-08T03:18:24;46.63;;;25.70;;
31424;SDS011;18054;51.572;7.372;2024-03-08T03:20:53;55.70;;;26.98;;
31424;SDS011;18054;51.572;7.372;2024-03-08T03:23:21;50.60;;;25.27;;
31424;SDS011;18054;51.572;7.372;2024-03-08T03:25:49;47.83;;;26.98;;
31424;SDS011;18054;51.572;7.372;2024-03-08T03:28:18;43.08;;;27.13;;
31424;SDS011;18054;51.572;7.372;2024-03-08T03:30:48;41.90;;;24.42;;
31424;SDS011;18054;51.572;7.372;2024-03-08T03:33:16;47.63;;;26.95;;
31424;SDS011;18054;51.572;7.372;2024-03-08T03:35:44;59.45;;;29.23;;
31424;SDS011;18054;51.572;7.372;2024-03-08T03:40:40;44.38;;;25.17;;
31424;SDS011;18054;51.572;7.372;2024-03-08T03:43:08;51.92;;;28.55;;
31424;SDS011;18054;51.572;7.372;2024-03-08T03:45:38;58.03;;;26.98;;
31424;SDS011;18054;51.572;7.372;2024-03-08T03:48:07;49.20;;;27.67;;
31424;SDS011;18054;51.572;7.372;2024-03-08T03:50:38;55.00;;;27.65;;
31424;SDS011;18054;51.572;7.372;2024-03-08T03:53:07;55.50;;;29.00;;
31424;SDS011;18054;51.572;7.372;2024-03-08T03:55:36;47.90;;;28.48;;
31424;SDS011;18054;51.572;7.372;2024-03-08T03:58:06;51.72;;;27.70;;
31424;SDS011;18054;51.572;7.372;2024-03-08T04:00:34;141.63;;;31.50;;
31424;SDS011;18054;51.572;7.372;2024-03-08T04:05:29;52.05;;;27.30;;
31424;SDS011;18054;51.572;7.372;2024-03-08T04:07:58;50.67;;;26.75;;
31424;SDS011;18054;51.572;7.372;2024-03-08T04:10:26;47.35;;;26.83;;
31424;SDS011;18054;51.572;7.372;2024-03-08T04:12:53;44.55;;;26.10;;
31424;SDS011;18054;51.572;7.372;2024-03-08T04:15:23;56.10;;;28.70;;
31424;SDS011;18054;51.572;7.372;2024-03-08T04:20:18;51.83;;;26.58;;
31424;SDS011;18054;51.572;7.372;2024-03-08T04:22:46;52.10;;;28.15;;
31424;SDS011;18054;51.572;7.372;2024-03-08T04:25:17;65.07;;;28.75;;
31424;SDS011;18054;51.572;7.372;2024-03-08T04:27:46;51.65;;;27.27;;
31424;SDS011;18054;51.572;7.372;2024-03-08T04:30:15;59.53;;;27.00;;
31424;SDS011;18054;51.572;7.372;2024-03-08T04:32:43;54.97;;;27.50;;
31424;SDS011;18054;51.572;7.372;2024-03-08T04:35:14;57.75;;;28.15;;
31424;SDS011;18054;51.572;7.372;2024-03-08T04:37:42;53.63;;;27.02;;
31424;SDS011;18054;51.572;7.372;2024-03-08T04:40:09;54.53;;;26.42;;
31424;SDS011;18054;51.572;7.372;2024-03-08T04:42:38;49.25;;;27.27;;
31424;SDS011;18054;51.572;7.372;2024-03-08T04:45:06;47.05;;;26.25;;
31424;SDS011;18054;51.572;7.372;2024-03-08T04:47:35;47.17;;;25.77;;
31424;SDS011;18054;51.572;7.372;2024-03-08T04:50:03;51.45;;;27.50;;
31424;SDS011;18054;51.572;7.372;2024-03-08T04:52:31;50.53;;;27.20;;
31424;SDS011;18054;51.572;7.372;2024-03-08T04:54:59;52.50;;;28.27;;
31424;SDS011;18054;51.572;7.372;2024-03-08T04:57:26;54.05;;;27.48;;
31424;SDS011;18054;51.572;7.372;2024-03-08T04:59:55;47.50;;;27.75;;
31424;SDS011;18054;51.572;7.372;2024-03-08T05:02:24;54.22;;;26.52;;
31424;SDS011;18054;51.572;7.372;2024-03-08T05:04:52;54.65;;;27.70;;
31424;SDS011;18054;51.572;7.372;2024-03-08T05:07:19;52.65;;;27.58;;
31424;SDS011;18054;51.572;7.372;2024-03-08T05:09:46;48.35;;;28.00;;
31424;SDS011;18054;51.572;7.372;2024-03-08T05:12:18;56.13;;;28.50;;
31424;SDS011;18054;51.572;7.372;2024-03-08T05:17:17;47.13;;;27.27;;
31424;SDS011;18054;51.572;7.372;2024-03-08T05:19:44;49.30;;;27.02;;
31424;SDS011;18054;51.572;7.372;2024-03-08T05:22:12;54.25;;;28.02;;
31424;SDS011;18054;51.572;7.372;2024-03-08T05:24:39;55.58;;;28.70;;
31424;SDS011;18054;51.572;7.372;2024-03-08T05:27:07;58.33;;;29.70;;
31424;SDS011;18054;51.572;7.372;2024-03-08T05:29:34;52.63;;;29.42;;
31424;SDS011;18054;51.572;7.372;2024-03-08T05:32:02;50.25;;;27.90;;
31424;SDS011;18054;51.572;7.372;2024-03-08T05:34:31;59.63;;;28.92;;
31424;SDS011;18054;51.572;7.372;2024-03-08T05:36:59;54.42;;;29.48;;
31424;SDS011;18054;51.572;7.372;2024-03-08T05:39:26;55.05;;;29.05;;
31424;SDS011;18054;51.572;7.372;2024-03-08T05:41:54;53.78;;;29.02;;
31424;SDS011;18054;51.572;7.372;2024-03-08T05:44:22;53.05;;;29.15;;
31424;SDS011;18054;51.572;7.372;2024-03-08T05:46:50;69.55;;;31.10;;
31424;SDS011;18054;51.572;7.372;2024-03-08T05:49:17;56.22;;;30.45;;
31424;SDS011;18054;51.572;7.372;2024-03-08T05:51:46;56.78;;;29.60;;
31424;SDS011;18054;51.572;7.372;2024-03-08T05:54:14;56.05;;;27.33;;
31424;SDS011;18054;51.572;7.372;2024-03-08T05:56:45;54.08;;;28.33;;
31424;SDS011;18054;51.572;7.372;2024-03-08T05:59:14;62.22;;;29.58;;
31424;SDS011;18054;51.572;7.372;2024-03-08T06:01:41;57.15;;;30.15;;
31424;SDS011;18054;51.572;7.372;2024-03-08T06:04:09;53.40;;;30.52;;
31424;SDS011;18054;51.572;7.372;2024-03-08T06:06:38;58.67;;;30.02;;
31424;SDS011;18054;51.572;7.372;2024-03-08T06:09:08;53.83;;;29.98;;
31424;SDS011;18054;51.572;7.372;2024-03-08T06:11:39;54.78;;;28.95;;
31424;SDS011;18054;51.572;7.372;2024-03-08T06:14:07;66.40;;;30.17;;
31424;SDS011;18054;51.572;7.372;2024-03-08T06:16:35;57.47;;;30.17;;
31424;SDS011;18054;51.572;7.372;2024-03-08T06:19:03;54.97;;;29.77;;
31424;SDS011;18054;51.572;7.372;2024-03-08T06:21:30;59.63;;;29.83;;
31424;SDS011;18054;51.572;7.372;2024-03-08T06:23:58;59.05;;;29.85;;
31424;SDS011;18054;51.572;7.372;2024-03-08T06:26:27;62.35;;;30.52;;
31424;SDS011;18054;51.572;7.372;2024-03-08T06:28:56;60.60;;;30.60;;
31424;SDS011;18054;51.572;7.372;2024-03-08T06:31:24;61.83;;;30.58;;
31424;SDS011;18054;51.572;7.372;2024-03-08T06:33:52;66.32;;;29.90;;
31424;SDS011;18054;51.572;7.372;2024-03-08T06:36:22;57.03;;;30.73;;
31424;SDS011;18054;51.572;7.372;2024-03-08T06:38:50;60.72;;;31.92;;
31424;SDS011;18054;51.572;7.372;2024-03-08T06:41:17;62.65;;;30.58;;
31424;SDS011;18054;51.572;7.372;2024-03-08T06:43:47;62.25;;;31.35;;
31424;SDS011;18054;51.572;7.372;2024-03-08T06:46:15;53.90;;;30.17;;
31424;SDS011;18054;51.572;7.372;2024-03-08T06:48:43;54.03;;;30.10;;
31424;SDS011;18054;51.572;7.372;2024-03-08T06:51:12;63.13;;;29.65;;
31424;SDS011;18054;51.572;7.372;2024-03-08T06:53:40;54.97;;;30.65;;
31424;SDS011;18054;51.572;7.372;2024-03-08T06:56:08;66.13;;;32.30;;
31424;SDS011;18054;51.572;7.372;2024-03-08T06:58:35;64.40;;;32.05;;
31424;SDS011;18054;51.572;7.372;2024-03-08T07:01:04;73.07;;;30.98;;
31424;SDS011;18054;51.572;7.372;2024-03-08T07:03:34;56.83;;;30.58;;
31424;SDS011;18054;51.572;7.372;2024-03-08T07:06:02;67.88;;;29.30;;
31424;SDS011;18054;51.572;7.372;2024-03-08T07:08:33;57.13;;;30.23;;
31424;SDS011;18054;51.572;7.372;2024-03-08T07:11:01;62.65;;;31.08;;
31424;SDS011;18054;51.572;7.372;2024-03-08T07:13:30;61.63;;;30.58;;
31424;SDS011;18054;51.572;7.372;2024-03-08T07:15:57;62.35;;;31.50;;
31424;SDS011;18054;51.572;7.372;2024-03-08T07:18:28;62.42;;;31.23;;
31424;SDS011;18054;51.572;7.372;2024-03-08T07:20:57;55.92;;;29.75;;
31424;SDS011;18054;51.572;7.372;2024-03-08T07:26:21;67.80;;;28.73;;
31424;SDS011;18054;51.572;7.372;2024-03-08T07:28:49;58.33;;;30.67;;
31424;SDS011;18054;51.572;7.372;2024-03-08T07:31:16;52.28;;;29.05;;
31424;SDS011;18054;51.572;7.372;2024-03-08T07:33:50;62.30;;;29.38;;
31424;SDS011;18054;51.572;7.372;2024-03-08T07:36:19;69.32;;;32.75;;
31424;SDS011;18054;51.572;7.372;2024-03-08T07:38:48;54.83;;;29.95;;
31424;SDS011;18054;51.572;7.372;2024-03-08T07:41:16;47.83;;;28.27;;
31424;SDS011;18054;51.572;7.372;2024-03-08T07:43:43;60.75;;;30.10;;
31424;SDS011;18054;51.572;7.372;2024-03-08T07:46:11;55.50;;;31.20;;
31424;SDS011;18054;51.572;7.372;2024-03-08T07:48:39;63.55;;;29.95;;
31424;SDS011;18054;51.572;7.372;2024-03-08T07:51:08;55.03;;;28.10;;
31424;SDS011;18054;51.572;7.372;2024-03-08T07:53:36;59.42;;;29.67;;
31424;SDS011;18054;51.572;7.372;2024-03-08T07:56:04;49.08;;;28.17;;
31424;SDS011;18054;51.572;7.372;2024-03-08T07:58:32;58.80;;;29.40;;
31424;SDS011;18054;51.572;7.372;2024-03-08T08:01:01;58.78;;;30.42;;
31424;SDS011;18054;51.572;7.372;2024-03-08T08:03:29;48.60;;;27.40;;
31424;SDS011;18054;51.572;7.372;2024-03-08T08:05:56;50.63;;;27.48;;
31424;SDS011;18054;51.572;7.372;2024-03-08T08:08:25;49.53;;;26.67;;
31424;SDS011;18054;51.572;7.372;2024-03-08T08:10:53;49.50;;;26.92;;
31424;SDS011;18054;51.572;7.372;2024-03-08T08:13:20;48.38;;;27.48;;
31424;SDS011;18054;51.572;7.372;2024-03-08T08:15:48;46.13;;;27.38;;
31424;SDS011;18054;51.572;7.372;2024-03-08T08:18:16;48.65;;;27.52;;
31424;SDS011;18054;51.572;7.372;2024-03-08T08:20:46;52.47;;;27.58;;
31424;SDS011;18054;51.572;7.372;2024-03-08T08:23:13;48.28;;;27.55;;
31424;SDS011;18054;51.572;7.372;2024-03-08T08:25:42;46.80;;;28.13;;
31424;SDS011;18054;51.572;7.372;2024-03-08T08:28:10;48.13;;;25.63;;
31424;SDS011;18054;51.572;7.372;2024-03-08T08:30:39;46.25;;;26.70;;
31424;SDS011;18054;51.572;7.372;2024-03-08T08:33:06;46.30;;;27.25;;
31424;SDS011;18054;51.572;7.372;2024-03-08T08:35:35;52.33;;;27.80;;
31424;SDS011;18054;51.572;7.372;2024-03-08T08:38:02;48.50;;;24.63;;
31424;SDS011;18054;51.572;7.372;2024-03-08T08:40:31;50.80;;;25.80;;
31424;SDS011;18054;51.572;7.372;2024-03-08T08:43:00;45.92;;;25.65;;
31424;SDS011;18054;51.572;7.372;2024-03-08T08:45:30;49.03;;;26.35;;
31424;SDS011;18054;51.572;7.372;2024-03-08T08:47:58;53.10;;;26.73;;
31424;SDS011;18054;51.572;7.372;2024-03-08T08:50:26;54.65;;;29.80;;
31424;SDS011;18054;51.572;7.372;2024-03-08T08:52:54;55.05;;;26.52;;
31424;SDS011;18054;51.572;7.372;2024-03-08T08:57:52;46.35;;;25.90;;
31424;SDS011;18054;51.572;7.372;2024-03-08T09:00:21;53.83;;;26.08;;
31424;SDS011;18054;51.572;7.372;2024-03-08T09:02:53;45.80;;;24.65;;
31424;SDS011;18054;51.572;7.372;2024-03-08T09:05:21;45.80;;;25.90;;
31424;SDS011;18054;51.572;7.372;2024-03-08T09:07:50;45.28;;;25.95;;
31424;SDS011;18054;51.572;7.372;2024-03-08T09:10:19;45.42;;;25.27;;
31424;SDS011;18054;51.572;7.372;2024-03-08T09:12:47;50.17;;;27.38;;
31424;SDS011;18054;51.572;7.372;2024-03-08T09:15:16;53.10;;;25.27;;
31424;SDS011;18054;51.572;7.372;2024-03-08T09:17:48;44.08;;;25.00;;
31424;SDS011;18054;51.572;7.372;2024-03-08T09:20:15;42.20;;;23.88;;
31424;SDS011;18054;51.572;7.372;2024-03-08T09:22:43;43.47;;;26.27;;
31424;SDS011;18054;51.572;7.372;2024-03-08T09:25:12;40.60;;;23.67;;
31424;SDS011;18054;51.572;7.372;2024-03-08T09:27:39;44.90;;;25.30;;
31424;SDS011;18054;51.572;7.372;2024-03-08T09:30:07;52.80;;;26.02;;
31424;SDS011;18054;51.572;7.372;2024-03-08T09:32:35;48.42;;;25.35;;
31424;SDS011;18054;51.572;7.372;2024-03-08T09:35:05;50.45;;;24.65;;
31424;SDS011;18054;51.572;7.372;2024-03-08T09:37:34;45.53;;;24.55;;
31424;SDS011;18054;51.572;7.372;2024-03-08T09:40:02;46.22;;;24.00;;
31424;SDS011;18054;51.572;7.372;2024-03-08T09:42:30;47.60;;;25.45;;
31424;SDS011;18054;51.572;7.372;2024-03-08T09:44:59;41.88;;;24.35;;
31424;SDS011;18054;51.572;7.372;2024-03-08T09:47:26;47.45;;;25.02;;
31424;SDS011;18054;51.572;7.372;2024-03-08T09:50:00;42.40;;;24.48;;
31424;SDS011;18054;51.572;7.372;2024-03-08T09:52:31;46.42;;;24.90;;
31424;SDS011;18054;51.572;7.372;2024-03-08T09:54:59;39.97;;;24.17;;
31424;SDS011;18054;51.572;7.372;2024-03-08T09:57:27;47.67;;;25.80;;
31424;SDS011;18054;51.572;7.372;2024-03-08T09:59:55;46.40;;;24.92;;
31424;SDS011;18054;51.572;7.372;2024-03-08T10:02:22;46.67;;;24.98;;
31424;SDS011;18054;51.572;7.372;2024-03-08T10:04:50;44.03;;;23.75;;
31424;SDS011;18054;51.572;7.372;2024-03-08T10:07:19;45.70;;;24.77;;
31424;SDS011;18054;51.572;7.372;2024-03-08T10:12:18;37.60;;;22.00;;
31424;SDS011;18054;51.572;7.372;2024-03-08T10:14:46;43.60;;;22.90;;
31424;SDS011;18054;51.572;7.372;2024-03-08T10:17:13;45.78;;;24.30;;
31424;SDS011;18054;51.572;7.372;2024-03-08T10:19:49;52.78;;;23.83;;
31424;SDS011;18054;51.572;7.372;2024-03-08T10:22:16;43.30;;;24.25;;
31424;SDS011;18054;51.572;7.372;2024-03-08T10:24:44;45.72;;;26.35;;
31424;SDS011;18054;51.572;7.372;2024-03-08T10:27:12;49.00;;;24.80;;
31424;SDS011;18054;51.572;7.372;2024-03-08T10:29:40;52.40;;;25.38;;
31424;SDS011;18054;51.572;7.372;2024-03-08T10:32:10;37.72;;;23.17;;
31424;SDS011;18054;51.572;7.372;2024-03-08T10:34:38;38.67;;;23.52;;
31424;SDS011;18054;51.572;7.372;2024-03-08T10:37:08;39.67;;;22.77;;
31424;SDS011;18054;51.572;7.372;2024-03-08T10:39:40;43.65;;;24.17;;
31424;SDS011;18054;51.572;7.372;2024-03-08T10:42:10;42.85;;;23.60;;
31424;SDS011;18054;51.572;7.372;2024-03-08T10:44:47;40.90;;;24.65;;
31424;SDS011;18054;51.572;7.372;2024-03-08T10:47:18;44.95;;;23.20;;
31424;SDS011;18054;51.572;7.372;2024-03-08T10:49:50;37.17;;;23.55;;
31424;SDS011;18054;51.572;7.372;2024-03-08T10:52:18;39.00;;;23.38;;
31424;SDS011;18054;51.572;7.372;2024-03-08T10:54:47;44.72;;;24.33;;
31424;SDS011;18054;51.572;7.372;2024-03-08T10:57:14;39.65;;;25.08;;
31424;SDS011;18054;51.572;7.372;2024-03-08T10:59:46;41.67;;;23.67;;
31424;SDS011;18054;51.572;7.372;2024-03-08T11:02:16;37.30;;;24.48;;
31424;SDS011;18054;51.572;7.372;2024-03-08T11:04:47;39.80;;;24.48;;
31424;SDS011;18054;51.572;7.372;2024-03-08T11:07:15;41.83;;;23.92;;
31424;SDS011;18054;51.572;7.372;2024-03-08T11:09:47;36.05;;;23.10;;
31424;SDS011;18054;51.572;7.372;2024-03-08T11:12:21;51.25;;;22.98;;
31424;SDS011;18054;51.572;7.372;2024-03-08T11:14:53;37.05;;;23.08;;
31424;SDS011;18054;51.572;7.372;2024-03-08T11:17:21;36.28;;;21.80;;
31424;SDS011;18054;51.572;7.372;2024-03-08T11:19:55;38.00;;;22.33;;
31424;SDS011;18054;51.572;7.372;2024-03-08T11:22:23;34.60;;;23.08;;
31424;SDS011;18054;51.572;7.372;2024-03-08T11:24:53;38.30;;;23.05;;
31424;SDS011;18054;51.572;7.372;2024-03-08T11:27:20;42.03;;;21.90;;
31424;SDS011;18054;51.572;7.372;2024-03-08T11:30:03;38.50;;;21.83;;
31424;SDS011;18054;51.572;7.372;2024-03-08T11:32:44;37.03;;;21.92;;
31424;SDS011;18054;51.572;7.372;2024-03-08T11:35:17;38.33;;;23.92;;
31424;SDS011;18054;51.572;7.372;2024-03-08T11:37:45;35.03;;;20.92;;
31424;SDS011;18054;51.572;7.372;2024-03-08T11:40:14;37.95;;;22.90;;
31424;SDS011;18054;51.572;7.372;2024-03-08T11:42:44;34.13;;;21.45;;
31424;SDS011;18054;51.572;7.372;2024-03-08T11:45:14;35.50;;;20.77;;
31424;SDS011;18054;51.572;7.372;2024-03-08T11:47:43;36.30;;;19.92;;
31424;SDS011;18054;51.572;7.372;2024-03-08T11:50:14;36.15;;;20.55;;
31424;SDS011;18054;51.572;7.372;2024-03-08T11:52:42;31.05;;;19.50;;
31424;SDS011;18054;51.572;7.372;2024-03-08T11:55:10;35.88;;;18.55;;
31424;SDS011;18054;51.572;7.372;2024-03-08T11:57:39;32.63;;;19.95;;
31424;SDS011;18054;51.572;7.372;2024-03-08T12:00:15;37.85;;;20.25;;
31424;SDS011;18054;51.572;7.372;2024-03-08T12:03:02;31.33;;;18.63;;
31424;SDS011;18054;51.572;7.372;2024-03-08T12:05:30;37.42;;;17.65;;
31424;SDS011;18054;51.572;7.372;2024-03-08T12:07:59;28.45;;;17.02;;
31424;SDS011;18054;51.572;7.372;2024-03-08T12:10:27;24.10;;;16.50;;
31424;SDS011;18054;51.572;7.372;2024-03-08T12:12:56;28.20;;;15.68;;
31424;SDS011;18054;51.572;7.372;2024-03-08T12:15:27;20.98;;;15.70;;
31424;SDS011;18054;51.572;7.372;2024-03-08T12:17:55;25.33;;;14.45;;
31424;SDS011;18054;51.572;7.372;2024-03-08T12:20:24;16.83;;;13.50;;
31424;SDS011;18054;51.572;7.372;2024-03-08T12:22:52;17.35;;;11.15;;
31424;SDS011;18054;51.572;7.372;2024-03-08T12:25:25;19.25;;;10.30;;
31424;SDS011;18054;51.572;7.372;2024-03-08T12:27:53;16.23;;;9.85;;
31424;SDS011;18054;51.572;7.372;2024-03-08T12:30:23;21.92;;;10.68;;
31424;SDS011;18054;51.572;7.372;2024-03-08T12:32:55;15.45;;;10.23;;
31424;SDS011;18054;51.572;7.372;2024-03-08T12:35:24;14.18;;;9.85;;
31424;SDS011;18054;51.572;7.372;2024-03-08T12:37:53;15.95;;;9.95;;
31424;SDS011;18054;51.572;7.372;2024-03-08T12:40:25;14.00;;;9.82;;
31424;SDS011;18054;51.572;7.372;2024-03-08T12:42:54;15.30;;;9.60;;
31424;SDS011;18054;51.572;7.372;2024-03-08T12:45:22;12.45;;;8.60;;
31424;SDS011;18054;51.572;7.372;2024-03-08T12:47:50;17.60;;;10.35;;
31424;SDS011;18054;51.572;7.372;2024-03-08T12:50:21;14.60;;;10.93;;
31424;SDS011;18054;51.572;7.372;2024-03-08T12:52:48;17.73;;;10.90;;
31424;SDS011;18054;51.572;7.372;2024-03-08T12:55:19;15.98;;;10.05;;
31424;SDS011;18054;51.572;7.372;2024-03-08T12:57:46;14.45;;;11.35;;
31424;SDS011;18054;51.572;7.372;2024-03-08T13:00:15;19.30;;;10.90;;
31424;SDS011;18054;51.572;7.372;2024-03-08T13:02:46;13.85;;;10.75;;
31424;SDS011;18054;51.572;7.372;2024-03-08T13:07:42;16.98;;;10.82;;
31424;SDS011;18054;51.572;7.372;2024-03-08T13:10:12;19.00;;;12.00;;
31424;SDS011;18054;51.572;7.372;2024-03-08T13:12:42;23.13;;;10.73;;
31424;SDS011;18054;51.572;7.372;2024-03-08T13:15:10;15.05;;;10.90;;
31424;SDS011;18054;51.572;7.372;2024-03-08T13:17:41;22.33;;;10.80;;
31424;SDS011;18054;51.572;7.372;2024-03-08T13:20:11;20.70;;;11.52;;
31424;SDS011;18054;51.572;7.372;2024-03-08T13:22:51;18.85;;;11.35;;
31424;SDS011;18054;51.572;7.372;2024-03-08T13:25:20;21.30;;;10.80;;
31424;SDS011;18054;51.572;7.372;2024-03-08T13:27:47;14.60;;;11.55;;
31424;SDS011;18054;51.572;7.372;2024-03-08T13:30:17;32.75;;;12.48;;
31424;SDS011;18054;51.572;7.372;2024-03-08T13:32:45;17.83;;;11.75;;
31424;SDS011;18054;51.572;7.372;2024-03-08T13:35:12;21.55;;;11.30;;
31424;SDS011;18054;51.572;7.372;2024-03-08T13:37:40;17.48;;;11.68;;
31424;SDS011;18054;51.572;7.372;2024-03-08T13:40:09;13.45;;;10.60;;
31424;SDS011;18054;51.572;7.372;2024-03-08T13:42:40;15.35;;;10.85;;
31424;SDS011;18054;51.572;7.372;2024-03-08T13:45:08;15.38;;;11.82;;
31424;SDS011;18054;51.572;7.372;2024-03-08T13:47:37;15.82;;;11.23;;
31424;SDS011;18054;51.572;7.372;2024-03-08T13:50:06;18.65;;;11.73;;
31424;SDS011;18054;51.572;7.372;2024-03-08T13:52:33;21.23;;;12.57;;
31424;SDS011;18054;51.572;7.372;2024-03-08T13:57:30;17.48;;;11.57;;
31424;SDS011;18054;51.572;7.372;2024-03-08T13:59:58;17.52;;;12.05;;
31424;SDS011;18054;51.572;7.372;2024-03-08T14:02:25;21.48;;;12.15;;
31424;SDS011;18054;51.572;7.372;2024-03-08T14:04:54;16.27;;;12.55;;
31424;SDS011;18054;51.572;7.372;2024-03-08T14:07:22;16.90;;;13.10;;
31424;SDS011;18054;51.572;7.372;2024-03-08T14:09:50;18.05;;;12.93;;
31424;SDS011;18054;51.572;7.372;2024-03-08T14:12:19;17.65;;;13.13;;
31424;SDS011;18054;51.572;7.372;2024-03-08T14:14:49;18.25;;;13.05;;
31424;SDS011;18054;51.572;7.372;2024-03-08T14:17:16;17.40;;;13.15;;
31424;SDS011;18054;51.572;7.372;2024-03-08T14:19:44;18.83;;;12.48;;
31424;SDS011;18054;51.572;7.372;2024-03-08T14:24:41;20.85;;;14.98;;
31424;SDS011;18054;51.572;7.372;2024-03-08T14:27:09;24.23;;;13.52;;
31424;SDS011;18054;51.572;7.372;2024-03-08T14:29:38;23.60;;;14.63;;
31424;SDS011;18054;51.572;7.372;2024-03-08T14:32:07;22.00;;;13.30;;
31424;SDS011;18054;51.572;7.372;2024-03-08T14:34:36;18.20;;;13.43;;
31424;SDS011;18054;51.572;7.372;2024-03-08T14:39:34;20.95;;;14.88;;
31424;SDS011;18054;51.572;7.372;2024-03-08T14:42:02;22.48;;;15.55;;
31424;SDS011;18054;51.572;7.372;2024-03-08T14:44:29;22.10;;;15.60;;
31424;SDS011;18054;51.572;7.372;2024-03-08T14:49:26;25.17;;;17.15;;
31424;SDS011;18054;51.572;7.372;2024-03-08T14:51:55;30.80;;;17.77;;
31424;SDS011;18054;51.572;7.372;2024-03-08T14:54:24;28.50;;;16.63;;
31424;SDS011;18054;51.572;7.372;2024-03-08T14:56:52;24.20;;;16.58;;
31424;SDS011;18054;51.572;7.372;2024-03-08T14:59:21;22.70;;;16.77;;
31424;SDS011;18054;51.572;7.372;2024-03-08T15:04:16;26.20;;;17.35;;
31424;SDS011;18054;51.572;7.372;2024-03-08T15:06:46;29.88;;;17.50;;
31424;SDS011;18054;51.572;7.372;2024-03-08T15:09:17;27.60;;;18.65;;
31424;SDS011;18054;51.572;7.372;2024-03-08T15:11:46;25.50;;;17.58;;